Time;durP1;ratioP1;P1;durP2;ratioP2;P2;SDS_P1;SDS_P2;PMS_P1;PMS_P2;Temp;Humidity;BMP_temperature;BMP_pressure;BME280_temperature;BME280_humidity;BME280_pressure;Samples;Min_cycle;Max_cycle;Signal;HPM_P1;HPM_P2
2021/04/11 00:01:50;;;;;;;10.18;5.80;;;8.90;99.90;;;;;;4974336;28;20050;-73
2021/04/11 00:04:17;;;;;;;12.50;5.60;;;8.80;99.90;;;;;;4974153;28;20051;-73
2021/04/11 00:06:43;;;;;;;10.07;5.55;;;8.70;99.90;;;;;;4974827;28;20034;-73
2021/04/11 00:09:09;;;;;;;8.27;4.82;;;8.70;99.90;;;;;;4974689;28;20031;-73
2021/04/11 00:11:35;;;;;;;7.63;4.57;;;8.60;99.90;;;;;;4987767;28;20395;-73
2021/04/11 00:14:02;;;;;;;6.63;4.20;;;8.50;99.90;;;;;;4956957;28;20050;-72
2021/04/11 00:16:28;;;;;;;8.68;4.35;;;8.30;99.90;;;;;;4974885;28;20031;-73
2021/04/11 00:18:55;;;;;;;7.18;4.22;;;8.20;99.90;;;;;;4987835;28;20026;-73
2021/04/11 00:21:21;;;;;;;8.18;4.30;;;8.00;99.90;;;;;;4971730;28;20039;-73
2021/04/11 00:23:47;;;;;;;9.13;4.13;;;8.00;99.90;;;;;;4974551;28;20047;-73
2021/04/11 00:26:13;;;;;;;8.20;4.28;;;7.90;99.90;;;;;;4974350;28;20035;-73
2021/04/11 00:28:39;;;;;;;8.90;4.72;;;7.90;99.90;;;;;;4974646;28;20038;-73
2021/04/11 00:31:06;;;;;;;9.38;5.28;;;7.80;99.90;;;;;;4989667;28;20039;-73
2021/04/11 00:33:38;;;;;;;14.50;8.65;;;7.70;99.90;;;;;;4974890;28;20030;-73
2021/04/11 00:36:11;;;;;;;10.93;7.00;;;7.60;99.90;;;;;;4976046;28;20042;-74
2021/04/11 00:38:38;;;;;;;8.85;6.28;;;7.60;99.90;;;;;;4985574;28;20041;-73
2021/04/11 00:41:33;;;;;;;9.43;6.15;;;7.60;99.90;;;;;;4984002;28;20486;-73
2021/04/11 00:44:01;;;;;;;7.40;4.85;;;7.50;99.90;;;;;;4993486;28;20042;-73
2021/04/11 00:46:48;;;;;;;8.43;4.47;;;7.50;99.90;;;;;;4975734;28;20035;-73
2021/04/11 00:49:19;;;;;;;6.78;4.38;;;7.40;99.90;;;;;;4973804;28;20045;-73
2021/04/11 00:51:45;;;;;;;8.32;4.50;;;7.40;99.90;;;;;;4973850;28;20046;-73
2021/04/11 00:54:12;;;;;;;6.13;4.15;;;7.50;99.90;;;;;;4983167;28;20042;-73
2021/04/11 00:56:39;;;;;;;8.23;4.70;;;7.40;99.90;;;;;;4973457;28;20400;-74
2021/04/11 00:59:07;;;;;;;7.88;4.60;;;7.40;99.90;;;;;;4973891;28;20031;-73
2021/04/11 01:01:37;;;;;;;7.55;4.13;;;7.40;99.90;;;;;;4972141;28;20050;-73
2021/04/11 01:04:11;;;;;;;6.32;4.03;;;7.40;99.90;;;;;;4954165;28;20050;-73
2021/04/11 01:06:42;;;;;;;7.43;4.97;;;7.40;99.90;;;;;;4981125;28;20038;-74
2021/04/11 01:09:17;;;;;;;5.93;4.47;;;7.40;99.90;;;;;;4973252;28;20511;-74
2021/04/11 01:11:44;;;;;;;7.57;4.70;;;7.30;99.90;;;;;;4971375;28;20035;-74
2021/04/11 01:14:14;;;;;;;6.70;4.80;;;7.30;99.90;;;;;;4973390;28;20061;-72
2021/04/11 01:16:42;;;;;;;7.50;4.47;;;7.40;99.90;;;;;;4956093;28;20503;-72
2021/04/11 01:19:14;;;;;;;7.57;4.72;;;7.40;99.90;;;;;;4955793;28;20050;-73
2021/04/11 01:22:04;;;;;;;6.80;4.75;;;7.50;99.90;;;;;;4970226;28;20042;-73
2021/04/11 01:24:40;;;;;;;6.38;4.10;;;7.50;99.90;;;;;;4955953;28;20057;-72
2021/04/11 01:27:10;;;;;;;6.78;4.50;;;7.50;99.90;;;;;;4958443;28;20043;-72
2021/04/11 01:29:39;;;;;;;8.87;4.60;;;7.60;99.90;;;;;;4956746;28;20042;-73
2021/04/11 01:32:07;;;;;;;6.47;4.20;;;7.70;99.90;;;;;;4973208;28;20050;-73
2021/04/11 01:34:35;;;;;;;7.63;4.47;;;7.70;99.90;;;;;;4982183;28;20039;-73
2021/04/11 01:37:04;;;;;;;7.53;4.72;;;7.70;99.90;;;;;;4972825;28;20042;-73
2021/04/11 01:39:36;;;;;;;5.75;4.43;;;7.70;99.90;;;;;;4971721;28;20062;-73
2021/04/11 01:42:04;;;;;;;6.32;4.53;;;7.70;99.90;;;;;;4955260;28;20473;-73
2021/04/11 01:44:34;;;;;;;8.98;5.93;;;7.80;99.90;;;;;;4972734;28;20050;-73
2021/04/11 01:47:02;;;;;;;;;;;7.80;99.90;;;;;;4970858;28;20038;-72
2021/04/11 01:49:36;;;;;;;9.77;5.43;;;7.80;99.90;;;;;;4955774;28;19914;-73
2021/04/11 01:52:07;;;;;;;6.72;4.63;;;7.90;99.90;;;;;;4955148;28;20392;-73
2021/04/11 01:54:35;;;;;;;9.48;5.78;;;7.90;99.90;;;;;;4970702;28;20039;-73
2021/04/11 01:57:10;;;;;;;8.55;5.35;;;7.90;99.90;;;;;;4956000;28;20035;-73
2021/04/11 01:59:38;;;;;;;10.32;5.78;;;8.00;99.90;;;;;;4973258;28;20126;-73
2021/04/11 02:02:06;;;;;;;9.68;5.65;;;8.00;99.90;;;;;;4973028;28;20027;-73
2021/04/11 02:04:33;;;;;;;11.18;6.03;;;8.00;99.90;;;;;;4970174;28;20051;-73
2021/04/11 02:07:02;;;;;;;7.68;5.18;;;8.00;99.90;;;;;;4972231;28;20050;-74
2021/04/11 02:09:39;;;;;;;10.02;6.72;;;8.00;99.90;;;;;;4955518;28;20049;-72
2021/04/11 02:12:19;;;;;;;9.65;5.22;;;7.90;99.90;;;;;;4970237;28;20395;-74
2021/04/11 02:14:51;;;;;;;10.65;5.68;;;7.90;99.90;;;;;;4972074;28;20094;-73
2021/04/11 02:17:19;;;;;;;9.57;5.53;;;7.90;99.90;;;;;;4976522;28;20031;-73
2021/04/11 02:19:51;;;;;;;7.85;5.60;;;7.90;99.90;;;;;;4976958;28;20035;-74
2021/04/11 02:22:23;;;;;;;9.10;5.53;;;7.90;99.90;;;;;;4955688;28;20408;-73
2021/04/11 02:24:52;;;;;;;7.97;5.55;;;7.90;99.90;;;;;;4950314;28;20067;-73
2021/04/11 02:27:22;;;;;;;9.15;5.32;;;8.20;99.90;;;;;;4961158;28;20035;-73
2021/04/11 02:29:49;;;;;;;10.13;5.90;;;8.20;99.90;;;;;;4956619;28;20043;-72
2021/04/11 02:32:17;;;;;;;7.00;5.32;;;8.20;99.90;;;;;;4963461;28;20061;-73
2021/04/11 02:34:44;;;;;;;9.73;5.63;;;8.30;99.90;;;;;;4975639;28;20038;-73
2021/04/11 02:37:29;;;;;;;8.70;5.65;;;8.20;99.90;;;;;;4958339;28;20043;-73
2021/04/11 02:39:58;;;;;;;8.63;5.75;;;8.20;99.90;;;;;;4940745;28;20480;-73
2021/04/11 02:42:27;;;;;;;9.50;5.80;;;8.10;99.90;;;;;;4958039;28;20097;-73
2021/04/11 02:45:00;;;;;;;8.93;5.90;;;8.10;99.90;;;;;;4957415;28;20051;-74
2021/04/11 02:47:33;;;;;;;7.63;5.75;;;8.10;99.90;;;;;;4949944;28;20391;-73
2021/04/11 02:50:05;;;;;;;7.20;5.25;;;8.10;99.90;;;;;;4957452;28;20047;-72
2021/04/11 02:52:54;;;;;;;8.23;5.50;;;8.10;99.90;;;;;;4958440;28;20054;-72
2021/04/11 02:55:22;;;;;;;7.32;5.55;;;8.30;99.90;;;;;;4938584;28;20047;-73
2021/04/11 02:57:54;;;;;;;7.47;4.95;;;8.50;99.90;;;;;;4957170;28;20035;-73
2021/04/11 03:00:23;;;;;;;6.97;4.78;;;8.70;99.90;;;;;;4954059;29;20047;-73
2021/04/11 03:02:50;;;;;;;6.97;5.13;;;8.80;99.90;;;;;;4956834;28;20054;-73
2021/04/11 03:05:21;;;;;;;6.70;5.00;;;8.80;99.90;;;;;;4939563;28;20138;-74
2021/04/11 03:07:53;;;;;;;6.32;4.75;;;8.90;99.90;;;;;;4955283;29;20091;-73
2021/04/11 03:10:41;;;;;;;6.00;4.63;;;8.90;99.90;;;;;;4939619;28;20047;-74
2021/04/11 03:13:09;;;;;;;8.32;5.00;;;9.00;99.90;;;;;;4956472;28;20027;-73
2021/04/11 03:15:36;;;;;;;7.20;4.82;;;9.10;99.90;;;;;;4957697;28;20043;-73
2021/04/11 03:18:04;;;;;;;8.20;4.82;;;9.00;99.90;;;;;;4956171;28;20066;-73
2021/04/11 03:20:36;;;;;;;7.37;4.70;;;9.00;99.90;;;;;;4954555;28;20054;-73
2021/04/11 03:23:11;;;;;;;6.65;4.47;;;9.00;99.90;;;;;;4949973;28;20297;-73
2021/04/11 03:25:40;;;;;;;8.55;5.05;;;8.90;99.90;;;;;;4992803;28;20038;-73
2021/04/11 03:28:18;;;;;;;7.25;4.97;;;8.90;99.90;;;;;;4972466;28;20042;-73
2021/04/11 03:31:04;;;;;;;8.43;4.95;;;9.00;99.90;;;;;;4958154;28;20389;-73
2021/04/11 03:33:44;;;;;;;9.73;7.65;;;8.90;99.90;;;;;;4977377;28;20039;-73
2021/04/11 03:36:18;;;;;;;7.82;6.15;;;9.00;99.90;;;;;;4988600;28;20054;-72
2021/04/11 03:38:48;;;;;;;10.30;6.88;;;9.00;99.90;;;;;;4957759;28;20054;-74
2021/04/11 03:41:16;;;;;;;10.70;4.85;;;9.00;99.90;;;;;;4974449;28;20396;-73
2021/04/11 03:43:48;;;;;;;7.40;5.47;;;9.20;99.90;;;;;;4973952;28;20365;-72
2021/04/11 03:46:23;;;;;;;10.13;6.07;;;9.30;99.90;;;;;;4957124;28;20061;-73
2021/04/11 03:49:17;;;;;;;8.52;5.40;;;9.40;99.90;;;;;;4973732;28;20043;-73
2021/04/11 03:51:45;;;;;;;18.48;11.27;;;9.40;99.90;;;;;;4957912;28;20042;-73
2021/04/11 03:54:22;;;;;;;15.43;11.88;;;9.30;99.90;;;;;;4957711;28;20038;-73
2021/04/11 03:57:06;;;;;;;9.68;7.03;;;9.30;99.90;;;;;;4974340;28;20054;-73
2021/04/11 03:59:59;;;;;;;10.07;5.60;;;9.30;99.90;;;;;;4972507;28;20078;-73
2021/04/11 04:02:30;;;;;;;6.95;4.65;;;9.30;99.90;;;;;;4953265;28;20499;-73
2021/04/11 04:04:59;;;;;;;9.43;5.40;;;9.30;99.90;;;;;;4959865;28;20046;-72
2021/04/11 04:07:46;;;;;;;9.80;4.90;;;9.20;99.90;;;;;;4966842;28;20072;-72
2021/04/11 04:10:14;;;;;;;5.95;5.07;;;9.00;99.90;;;;;;4963935;28;20047;-73
2021/04/11 04:12:53;;;;;;;8.65;4.60;;;8.90;99.90;;;;;;4957247;28;20468;-73
2021/04/11 04:15:32;;;;;;;9.70;5.35;;;8.80;99.90;;;;;;4957961;28;20047;-73
2021/04/11 04:18:05;;;;;;;8.40;5.25;;;8.70;99.90;;;;;;4962152;28;20037;-73
2021/04/11 04:20:50;;;;;;;31.42;18.40;;;8.60;99.90;;;;;;4974965;28;20034;-73
2021/04/11 04:23:50;;;;;;;7.75;5.57;;;8.60;99.90;;;;;;4973921;28;20058;-72
2021/04/11 04:26:44;;;;;;;8.68;4.72;;;8.60;99.90;;;;;;4974627;28;20049;-73
2021/04/11 04:29:16;;;;;;;7.67;4.83;;;8.70;99.90;;;;;;4956903;28;20400;-75
2021/04/11 04:31:57;;;;;;;14.87;9.93;;;8.60;99.90;;;;;;4957449;28;20637;-72
2021/04/11 04:34:31;;;;;;;9.15;6.07;;;8.60;99.90;;;;;;4957515;28;20782;-73
2021/04/11 04:37:20;;;;;;;10.13;5.85;;;8.50;99.90;;;;;;4956679;28;20045;-73
2021/04/11 04:39:58;;;;;;;7.75;5.45;;;8.50;99.90;;;;;;4972431;28;20042;-74
2021/04/11 04:42:50;;;;;;;8.80;6.18;;;8.50;99.90;;;;;;4974359;28;20035;-73
2021/04/11 04:45:30;;;;;;;13.57;8.45;;;8.60;99.90;;;;;;4988429;28;20050;-74
2021/04/11 04:48:17;;;;;;;40.42;17.98;;;8.60;99.90;;;;;;4974017;28;20043;-73
2021/04/11 04:51:10;;;;;;;16.67;10.82;;;8.60;99.90;;;;;;4958786;28;20058;-73
2021/04/11 04:54:07;;;;;;;14.27;9.05;;;8.60;99.90;;;;;;4956882;28;20038;-75
2021/04/11 04:56:44;;;;;;;14.30;8.95;;;8.50;99.90;;;;;;4972192;28;20054;-74
2021/04/11 04:59:21;;;;;;;15.27;8.75;;;8.50;99.90;;;;;;4971206;28;20053;-72
2021/04/11 05:01:58;;;;;;;41.33;22.70;;;8.50;99.90;;;;;;4974430;28;20433;-73
2021/04/11 05:04:30;;;;;;;23.77;14.30;;;8.50;99.90;;;;;;4973833;28;20099;-73
2021/04/11 05:07:11;;;;;;;9.02;5.55;;;8.50;99.90;;;;;;4956056;28;20073;-73
2021/04/11 05:10:01;;;;;;;8.63;5.15;;;8.60;99.90;;;;;;4956441;28;20407;-74
2021/04/11 05:13:05;;;;;;;8.98;4.68;;;8.70;99.90;;;;;;4976335;28;20337;-75
2021/04/11 05:15:44;;;;;;;7.20;4.75;;;8.90;99.90;;;;;;4971436;28;20042;-73
2021/04/11 05:18:40;;;;;;;6.53;4.22;;;9.10;99.90;;;;;;4941960;28;20498;-74
2021/04/11 05:21:22;;;;;;;8.00;4.45;;;9.30;99.90;;;;;;4956818;28;20038;-74
2021/04/11 05:24:20;;;;;;;5.63;3.85;;;9.50;99.90;;;;;;4971939;28;20042;-74
2021/04/11 05:26:58;;;;;;;8.55;4.60;;;9.80;99.90;;;;;;4940859;28;20069;-73
2021/04/11 05:29:59;;;;;;;6.43;4.35;;;10.60;99.90;;;;;;4964437;28;20587;-73
2021/04/11 05:32:26;;;;;;;5.57;3.60;;;10.90;97.80;;;;;;4976632;28;20038;-74
2021/04/11 05:34:54;;;;;;;7.20;3.60;;;10.70;96.40;;;;;;4992424;28;20045;-73
2021/04/11 05:37:26;;;;;;;4.50;3.17;;;11.30;95.40;;;;;;4983367;28;20486;-73
2021/04/11 05:39:52;;;;;;;5.25;3.90;;;11.70;92.60;;;;;;4976483;28;20039;-73
2021/04/11 05:42:24;;;;;;;7.75;3.25;;;11.80;92.10;;;;;;4973140;28;20027;-73
2021/04/11 05:44:59;;;;;;;5.93;3.55;;;11.60;91.50;;;;;;4977165;28;20057;-73
2021/04/11 05:47:41;;;;;;;5.25;2.67;;;11.40;91.90;;;;;;4986634;28;20399;-73
2021/04/11 05:50:26;;;;;;;5.65;2.67;;;11.30;92.00;;;;;;4972854;28;20035;-74
2021/04/11 05:53:16;;;;;;;6.53;3.13;;;11.60;91.80;;;;;;4972627;28;20046;-74
2021/04/11 05:55:48;;;;;;;5.10;2.72;;;12.20;89.50;;;;;;4962848;28;20051;-73
2021/04/11 05:58:18;;;;;;;4.97;2.85;;;12.90;86.40;;;;;;4972756;28;20042;-73
2021/04/11 06:00:46;;;;;;;6.33;3.20;;;13.70;80.70;;;;;;4989827;28;20042;-73
2021/04/11 06:03:18;;;;;;;4.93;3.38;;;13.30;79.30;;;;;;4978420;28;20035;-74
2021/04/11 06:05:56;;;;;;;150.35;98.30;;;12.90;81.40;;;;;;4973174;28;20472;-73
2021/04/11 06:08:56;;;;;;;92.22;54.45;;;12.60;82.30;;;;;;4972960;28;20388;-73
2021/04/11 06:11:39;;;;;;;85.47;47.42;;;12.30;83.90;;;;;;4971967;28;20045;-73
2021/04/11 06:14:15;;;;;;;17.70;9.43;;;12.20;84.30;;;;;;4972783;28;20043;-73
2021/04/11 06:16:42;;;;;;;12.25;7.90;;;12.20;84.00;;;;;;4973085;28;20042;-73
2021/04/11 06:19:09;;;;;;;8.38;4.57;;;12.20;84.10;;;;;;4979657;28;20384;-74
2021/04/11 06:21:54;;;;;;;40.67;22.98;;;12.20;84.10;;;;;;4973151;28;20348;-73
2021/04/11 06:24:24;;;;;;;90.72;52.25;;;12.30;84.10;;;;;;4972051;28;20058;-73
2021/04/11 06:27:25;;;;;;;32.83;21.30;;;12.40;83.50;;;;;;4972660;28;20081;-73
2021/04/11 06:30:16;;;;;;;56.83;38.13;;;12.80;82.00;;;;;;4960164;28;20055;-73
2021/04/11 06:32:52;;;;;;;38.55;26.42;;;12.90;81.40;;;;;;4972722;28;20035;-74
2021/04/11 06:35:29;;;;;;;7.70;4.70;;;13.00;80.20;;;;;;4981805;28;20495;-73
2021/04/11 06:37:59;;;;;;;6.60;4.38;;;12.80;79.70;;;;;;4973134;28;20372;-73
2021/04/11 06:40:38;;;;;;;22.45;18.10;;;13.00;80.40;;;;;;4973201;28;20046;-74
2021/04/11 06:43:27;;;;;;;7.88;4.10;;;13.30;78.80;;;;;;4972663;28;20026;-74
2021/04/11 06:46:02;;;;;;;4.90;3.47;;;13.50;77.40;;;;;;4972914;28;20495;-74
2021/04/11 06:48:58;;;;;;;12.45;9.68;;;13.40;75.90;;;;;;4972750;28;20566;-74
2021/04/11 06:51:57;;;;;;;5.20;3.22;;;13.40;75.80;;;;;;4971969;28;20043;-73
2021/04/11 06:54:45;;;;;;;9.18;5.97;;;13.50;76.20;;;;;;4972174;28;20042;-73
2021/04/11 06:57:26;;;;;;;9.60;6.88;;;13.60;75.10;;;;;;4972449;28;20042;-74
2021/04/11 07:00:08;;;;;;;5.97;3.03;;;13.60;75.30;;;;;;4972004;28;20034;-73
2021/04/11 07:03:12;;;;;;;10.98;6.63;;;13.30;75.60;;;;;;4976155;28;20035;-74
2021/04/11 07:06:16;;;;;;;5.70;3.33;;;13.40;76.10;;;;;;4976116;28;20183;-73
2021/04/11 07:08:57;;;;;;;7.63;3.60;;;13.50;76.60;;;;;;4976081;28;20035;-72
2021/04/11 07:11:32;;;;;;;6.53;4.00;;;13.40;75.60;;;;;;4975129;28;20046;-72
2021/04/11 07:14:04;;;;;;;6.30;3.35;;;13.40;75.80;;;;;;4975925;28;20031;-72
2021/04/11 07:17:08;;;;;;;4.63;3.22;;;13.40;75.60;;;;;;4975844;28;20034;-73
2021/04/11 07:19:56;;;;;;;6.95;3.80;;;13.20;77.70;;;;;;4975942;28;20038;-73
2021/04/11 07:22:43;;;;;;;5.80;4.35;;;13.20;77.20;;;;;;4975162;28;20050;-74
2021/04/11 07:25:30;;;;;;;4.03;3.05;;;13.00;77.00;;;;;;4978027;28;20415;-73
2021/04/11 07:28:28;;;;;;;5.38;2.92;;;12.90;77.10;;;;;;4981739;28;20047;-73
2021/04/11 07:31:08;;;;;;;6.05;3.13;;;13.10;77.30;;;;;;4976291;28;20045;-74
2021/04/11 07:34:03;;;;;;;4.27;2.80;;;13.20;77.40;;;;;;4978791;28;20054;-72
2021/04/11 07:36:48;;;;;;;5.93;2.90;;;13.40;77.00;;;;;;4989399;28;20026;-73
2021/04/11 07:39:41;;;;;;;8.18;3.13;;;13.90;76.10;;;;;;4974477;28;20050;-73
2021/04/11 07:42:11;;;;;;;7.07;2.40;;;14.80;73.70;;;;;;4982587;28;20034;-74
2021/04/11 07:44:53;;;;;;;4.00;2.20;;;15.90;69.10;;;;;;4983810;28;20031;-74
2021/04/11 07:47:28;;;;;;;3.92;2.60;;;15.90;68.80;;;;;;4974034;28;20051;-73
2021/04/11 07:50:13;;;;;;;4.30;2.20;;;15.70;67.50;;;;;;4975678;28;20452;-74
2021/04/11 07:53:03;;;;;;;4.35;2.50;;;15.20;67.90;;;;;;4974842;28;20038;-74
2021/04/11 07:56:17;;;;;;;4.65;2.75;;;15.00;68.30;;;;;;4975420;28;20042;-73
2021/04/11 07:58:49;;;;;;;3.60;2.28;;;15.10;69.50;;;;;;4979450;28;20030;-73
2021/04/11 08:01:43;;;;;;;7.35;2.22;;;15.70;67.20;;;;;;4972663;28;20038;-73
2021/04/11 08:04:29;;;;;;;3.45;2.17;;;17.00;64.60;;;;;;4957237;28;20038;-73
2021/04/11 08:07:01;;;;;;;5.43;2.45;;;18.50;61.20;;;;;;4974662;28;20069;-73
2021/04/11 08:09:35;;;;;;;10.45;3.80;;;18.40;59.40;;;;;;4974612;28;20039;-74
2021/04/11 08:12:16;;;;;;;5.47;3.50;;;19.50;58.30;;;;;;4977998;28;20464;-72
2021/04/11 08:15:00;;;;;;;5.80;1.88;;;20.40;55.30;;;;;;4978290;28;20030;-73
2021/04/11 08:18:06;;;;;;;2.40;1.52;;;20.00;55.60;;;;;;4981070;28;20034;-75
2021/04/11 08:20:41;;;;;;;2.83;1.30;;;21.00;54.20;;;;;;4975714;28;20054;-75
2021/04/11 08:23:25;;;;;;;4.32;1.55;;;20.40;53.70;;;;;;4986164;28;20408;-72
2021/04/11 08:25:59;;;;;;;4.45;1.25;;;21.10;52.00;;;;;;4989262;28;20044;-73
2021/04/11 08:29:03;;;;;;;4.05;1.67;;;20.80;53.10;;;;;;4982582;28;20389;-75
2021/04/11 08:31:29;;;;;;;6.85;1.45;;;20.50;53.30;;;;;;4974558;28;20350;-74
2021/04/11 08:34:16;;;;;;;2.30;1.50;;;19.90;53.10;;;;;;4980196;28;20026;-74
2021/04/11 08:36:51;;;;;;;2.30;1.27;;;21.10;51.80;;;;;;4975804;28;20053;-75
2021/04/11 08:39:46;;;;;;;4.03;1.50;;;21.00;51.40;;;;;;4973956;28;20035;-73
2021/04/11 08:42:34;;;;;;;3.13;1.30;;;21.10;51.80;;;;;;4957177;28;20066;-73
2021/04/11 08:45:17;;;;;;;3.33;1.10;;;20.60;51.50;;;;;;4974492;28;20049;-74
2021/04/11 08:47:43;;;;;;;3.78;1.00;;;20.20;52.30;;;;;;4974593;28;20380;-75
2021/04/11 08:50:23;;;;;;;3.33;1.15;;;20.40;53.40;;;;;;4986646;28;20435;-73
2021/04/11 08:53:07;;;;;;;;;;;19.90;52.90;;;;;;4975874;28;20118;-74
2021/04/11 08:55:52;;;;;;;3.47;1.10;;;19.10;54.70;;;;;;4973966;28;19910;-74
2021/04/11 08:58:32;;;;;;;1.35;0.60;;;19.50;54.60;;;;;;4973843;28;20047;-75
2021/04/11 09:01:25;;;;;;;3.83;1.13;;;19.20;54.20;;;;;;4973568;28;20050;-75
2021/04/11 09:04:19;;;;;;;3.40;0.82;;;20.10;53.10;;;;;;4981957;28;20031;-74
2021/04/11 09:07:14;;;;;;;2.35;1.08;;;19.40;53.80;;;;;;4979432;28;20042;-74
2021/04/11 09:10:05;;;;;;;2.03;0.90;;;19.10;54.60;;;;;;4981049;28;20391;-74
2021/04/11 09:12:45;;;;;;;2.08;0.80;;;18.80;55.10;;;;;;4973777;28;20031;-75
2021/04/11 09:15:25;;;;;;;4.72;0.50;;;18.40;56.10;;;;;;4973132;28;20030;-75
2021/04/11 09:18:06;;;;;;;1.90;1.13;;;18.60;56.40;;;;;;4973494;28;20491;-73
2021/04/11 09:20:55;;;;;;;4.00;1.65;;;19.80;54.50;;;;;;4981712;28;20360;-74
2021/04/11 09:23:43;;;;;;;5.93;1.67;;;19.50;54.40;;;;;;4985318;28;20069;-84
2021/04/11 09:26:31;;;;;;;5.10;2.65;;;19.10;55.10;;;;;;4978609;28;20105;-85
2021/04/11 09:29:22;;;;;;;3.13;1.70;;;18.30;55.50;;;;;;4979505;28;20383;-82
2021/04/11 09:32:02;;;;;;;5.38;1.90;;;17.20;57.50;;;;;;4965216;28;20043;-83
2021/04/11 09:34:49;;;;;;;3.10;1.63;;;16.60;58.90;;;;;;4974780;28;20507;-83
2021/04/11 09:37:53;;;;;;;3.53;2.40;;;16.60;59.70;;;;;;4973690;28;20480;-85
2021/04/11 09:40:49;;;;;;;3.13;1.45;;;16.80;59.40;;;;;;4956277;28;20053;-82
2021/04/11 09:43:23;;;;;;;3.78;1.63;;;17.00;59.30;;;;;;4888338;28;20053;-85
2021/04/11 09:46:02;;;;;;;2.00;1.33;;;17.20;59.40;;;;;;4976671;28;20050;-85
2021/04/11 09:48:58;;;;;;;2.55;1.48;;;16.80;59.30;;;;;;4973925;28;20031;-86
2021/04/11 09:51:39;;;;;;;3.58;1.45;;;16.60;60.10;;;;;;4979430;28;20030;-77
2021/04/11 09:54:27;;;;;;;4.45;1.50;;;16.70;60.20;;;;;;4977932;28;20392;-77
2021/04/11 09:57:23;;;;;;;3.97;1.52;;;16.70;60.20;;;;;;4985656;28;20492;-76
2021/04/11 10:00:08;;;;;;;2.83;1.50;;;16.60;60.10;;;;;;4977845;28;20035;-76
2021/04/11 10:02:56;;;;;;;3.33;1.52;;;16.50;60.90;;;;;;4973504;28;20034;-76
2021/04/11 10:05:41;;;;;;;2.35;0.90;;;16.50;61.10;;;;;;4973742;28;20031;-77
2021/04/11 10:08:33;;;;;;;3.33;1.50;;;16.40;61.40;;;;;;4986014;28;20487;-77
2021/04/11 10:11:15;;;;;;;2.53;1.20;;;16.40;61.20;;;;;;4973217;28;20392;-76
2021/04/11 10:13:47;;;;;;;5.38;1.02;;;16.40;61.40;;;;;;4987860;28;20042;-77
2021/04/11 10:16:13;;;;;;;2.08;1.10;;;16.40;62.50;;;;;;4975951;28;20050;-76
2021/04/11 10:19:07;;;;;;;3.08;1.02;;;16.30;61.70;;;;;;4984103;28;20376;-77
2021/04/11 10:22:05;;;;;;;3.85;1.23;;;16.20;61.80;;;;;;4972225;28;20043;-76
2021/04/11 10:25:04;;;;;;;4.30;1.00;;;16.20;61.70;;;;;;4972338;28;20046;-76
2021/04/11 10:27:36;;;;;;;3.22;1.10;;;16.20;62.00;;;;;;4972292;28;20053;-77
2021/04/11 10:30:05;;;;;;;2.08;1.00;;;16.10;61.90;;;;;;4972451;28;20043;-78
2021/04/11 10:32:47;;;;;;;2.63;0.93;;;16.20;62.00;;;;;;4971236;28;20038;-77
2021/04/11 10:35:16;;;;;;;4.13;1.25;;;16.10;61.80;;;;;;4964247;28;20047;-77
2021/04/11 10:38:11;;;;;;;2.78;0.90;;;16.00;61.90;;;;;;4973051;28;20057;-77
2021/04/11 10:41:11;;;;;;;1.98;0.90;;;16.00;62.10;;;;;;4967969;28;20051;-77
2021/04/11 10:44:05;;;;;;;2.03;0.70;;;15.90;62.50;;;;;;4968206;28;20031;-78
2021/04/11 10:47:04;;;;;;;1.80;0.90;;;16.00;62.40;;;;;;4973800;28;20054;-77
2021/04/11 10:49:48;;;;;;;4.97;1.13;;;15.90;62.60;;;;;;4975125;28;20045;-76
2021/04/11 10:52:46;;;;;;;4.10;1.08;;;15.70;63.10;;;;;;4975459;28;20038;-76
2021/04/11 10:55:40;;;;;;;3.03;0.95;;;15.70;63.00;;;;;;4975795;28;20491;-77
2021/04/11 10:58:25;;;;;;;1.83;1.02;;;15.70;63.40;;;;;;4974952;28;20050;-76
2021/04/11 11:01:30;;;;;;;1.95;1.10;;;15.60;63.30;;;;;;4974895;28;20042;-77
2021/04/11 11:04:18;;;;;;;4.15;0.98;;;15.60;63.50;;;;;;4975844;28;20058;-76
2021/04/11 11:07:24;;;;;;;3.60;1.02;;;15.60;63.20;;;;;;4959759;28;20054;-77
2021/04/11 11:10:15;;;;;;;3.85;0.95;;;15.60;63.50;;;;;;4975765;28;20035;-76
2021/04/11 11:13:02;;;;;;;5.22;1.30;;;15.60;62.90;;;;;;4956929;29;20031;-76
2021/04/11 11:15:46;;;;;;;2.08;0.95;;;15.40;63.50;;;;;;4956649;29;20034;-77
2021/04/11 11:18:35;;;;;;;3.45;1.35;;;15.50;63.40;;;;;;4956337;28;20044;-76
2021/04/11 11:21:23;;;;;;;1.50;0.50;;;15.50;63.40;;;;;;4968677;28;20034;-76
2021/04/11 11:24:03;;;;;;;2.20;0.60;;;15.70;62.70;;;;;;4970606;28;20050;-77
2021/04/11 11:27:09;;;;;;;2.85;1.00;;;15.90;62.10;;;;;;4975404;28;20046;-77
2021/04/11 11:30:11;;;;;;;2.53;0.85;;;16.30;61.10;;;;;;4975459;28;20396;-77
2021/04/11 11:32:51;;;;;;;1.42;0.77;;;16.50;60.30;;;;;;4976080;28;20362;-77
2021/04/11 11:35:18;;;;;;;2.40;0.90;;;16.30;60.80;;;;;;4984011;28;20376;-77
2021/04/11 11:38:06;;;;;;;1.73;0.60;;;16.00;61.10;;;;;;4975463;28;20050;-77
2021/04/11 11:40:58;;;;;;;2.33;0.68;;;16.00;61.60;;;;;;4975282;28;20034;-76
2021/04/11 11:43:51;;;;;;;2.55;1.30;;;16.10;61.40;;;;;;4964356;28;20069;-76
2021/04/11 11:46:38;;;;;;;3.78;1.10;;;16.30;60.70;;;;;;4972547;28;20062;-77
2021/04/11 11:49:36;;;;;;;2.55;1.08;;;16.60;60.70;;;;;;4975067;28;20050;-77
2021/04/11 11:52:05;;;;;;;2.33;0.85;;;16.90;59.50;;;;;;4974541;28;20035;-77
2021/04/11 11:54:47;;;;;;;2.25;0.60;;;17.30;60.10;;;;;;4984296;28;20043;-77
2021/04/11 11:57:35;;;;;;;2.08;0.88;;;17.90;58.40;;;;;;4978091;28;20046;-77
2021/04/11 12:00:39;;;;;;;2.50;0.80;;;18.20;57.10;;;;;;4987800;28;20031;-78
2021/04/11 12:03:23;;;;;;;4.80;0.80;;;18.10;57.00;;;;;;4883348;29;20041;-78
2021/04/11 12:06:14;;;;;;;1.48;0.98;;;17.90;57.50;;;;;;4967954;28;20054;-78
2021/04/11 12:09:03;;;;;;;1.40;0.70;;;17.60;59.00;;;;;;4974830;28;20039;-76
2021/04/11 12:11:50;;;;;;;1.80;0.70;;;17.60;57.90;;;;;;4974315;28;20047;-78
2021/04/11 12:14:29;;;;;;;1.67;0.57;;;17.40;58.40;;;;;;4974732;28;20083;-77
2021/04/11 12:17:23;;;;;;;1.42;0.60;;;17.20;58.70;;;;;;4982464;28;20042;-77
2021/04/11 12:20:00;;;;;;;1.80;0.80;;;16.90;59.10;;;;;;4974818;28;20034;-76
2021/04/11 12:22:29;;;;;;;1.17;0.60;;;16.70;60.20;;;;;;4978818;28;20043;-77
2021/04/11 12:25:26;;;;;;;1.67;0.65;;;16.70;60.60;;;;;;4979784;28;20030;-78
2021/04/11 12:27:53;;;;;;;2.55;0.80;;;16.50;60.60;;;;;;4958898;28;20047;-77
2021/04/11 12:30:30;;;;;;;2.58;1.38;;;16.40;61.00;;;;;;4974223;28;20307;-76
2021/04/11 12:33:34;;;;;;;3.15;1.33;;;16.30;61.50;;;;;;4978870;28;20069;-76
2021/04/11 12:36:09;;;;;;;4.55;1.80;;;16.10;62.90;;;;;;4985098;28;20039;-78
2021/04/11 12:38:45;;;;;;;2.92;0.70;;;16.20;63.60;;;;;;4975286;28;20046;-75
2021/04/11 12:41:46;;;;;;;2.30;0.80;;;16.10;64.20;;;;;;4981191;28;20030;-75
2021/04/11 12:44:24;;;;;;;2.00;0.85;;;15.90;65.70;;;;;;4989329;28;20038;-76
2021/04/11 12:47:23;;;;;;;1.70;0.70;;;15.90;65.00;;;;;;4972802;28;20050;-73
2021/04/11 12:50:00;;;;;;;0.93;0.50;;;15.80;65.60;;;;;;4989350;28;20046;-75
2021/04/11 12:52:27;;;;;;;1.90;0.60;;;15.40;66.60;;;;;;4973657;28;20042;-75
2021/04/11 12:55:05;;;;;;;1.10;0.60;;;15.30;67.40;;;;;;4973837;28;20065;-75
2021/04/11 12:57:37;;;;;;;3.10;1.35;;;15.30;67.50;;;;;;4989179;28;20475;-74
2021/04/11 13:00:24;;;;;;;3.15;0.98;;;15.40;67.60;;;;;;4977256;28;20034;-74
2021/04/11 13:02:58;;;;;;;6.03;2.58;;;16.00;67.10;;;;;;4974103;28;20674;-75
2021/04/11 13:05:37;;;;;;;3.70;1.02;;;16.30;65.00;;;;;;4982091;28;20031;-75
2021/04/11 13:08:32;;;;;;;2.25;0.70;;;16.50;64.50;;;;;;4963700;28;20058;-75
2021/04/11 13:11:06;;;;;;;3.42;0.80;;;16.30;64.90;;;;;;4987631;28;20042;-74
2021/04/11 13:13:53;;;;;;;2.90;1.00;;;16.10;66.00;;;;;;4973833;28;20469;-74
2021/04/11 13:16:45;;;;;;;1.30;0.85;;;15.70;66.50;;;;;;4956072;28;20053;-75
2021/04/11 13:19:22;;;;;;;4.18;0.75;;;15.90;66.70;;;;;;4973629;28;20065;-75
2021/04/11 13:22:13;;;;;;;1.65;0.60;;;15.70;67.50;;;;;;4987295;28;20431;-74
2021/04/11 13:24:48;;;;;;;4.38;1.35;;;15.30;67.70;;;;;;4973647;28;20042;-75
2021/04/11 13:27:32;;;;;;;2.30;1.05;;;15.40;67.70;;;;;;4973458;28;20039;-74
2021/04/11 13:30:13;;;;;;;2.08;0.88;;;15.30;67.60;;;;;;4972762;28;20046;-75
2021/04/11 13:33:03;;;;;;;3.22;0.90;;;15.00;67.90;;;;;;4973593;28;20027;-75
2021/04/11 13:35:29;;;;;;;1.60;0.50;;;14.90;68.60;;;;;;4972034;28;20043;-75
2021/04/11 13:38:12;;;;;;;2.10;0.60;;;14.90;67.20;;;;;;4973742;28;20047;-75
2021/04/11 13:40:39;;;;;;;2.47;0.60;;;14.80;67.70;;;;;;4966450;28;20051;-75
2021/04/11 13:43:24;;;;;;;2.20;0.50;;;14.80;67.60;;;;;;4972683;28;20042;-75
2021/04/11 13:45:53;;;;;;;1.13;0.30;;;14.80;68.30;;;;;;4972886;28;20050;-75
2021/04/11 13:48:42;;;;;;;0.57;0.40;;;14.70;68.20;;;;;;4972322;28;20516;-75
2021/04/11 13:51:15;;;;;;;2.97;0.40;;;14.50;68.90;;;;;;4972982;28;20058;-74
2021/04/11 13:54:00;;;;;;;2.00;0.70;;;14.20;70.30;;;;;;4979904;28;20030;-73
2021/04/11 13:56:48;;;;;;;1.25;0.52;;;14.10;70.90;;;;;;4980394;28;20046;-75
2021/04/11 13:59:48;;;;;;;2.05;0.57;;;14.00;71.40;;;;;;4985397;28;20053;-74